Time;durP1;ratioP1;P1;durP2;ratioP2;P2;SDS_P1;SDS_P2;PMS_P1;PMS_P2;Temp;Humidity;BMP_temperature;BMP_pressure;BME280_temperature;BME280_humidity;BME280_pressure;Samples;Min_cycle;Max_cycle;Signal;HPM_P1;HPM_P2
2021/11/25 00:00:44;;;;;;;1.33;1.30;;;2.10;98.00;;;;;;5012046;28;20471;-62
2021/11/25 00:03:11;;;;;;;1.90;1.80;;;2.10;98.00;;;;;;5012024;28;20524;-62
2021/11/25 00:05:39;;;;;;;1.10;1.03;;;2.10;98.00;;;;;;5011125;28;20537;-62
2021/11/25 00:08:06;;;;;;;2.33;1.33;;;2.10;98.00;;;;;;5011694;28;20457;-62
2021/11/25 00:10:38;;;;;;;1.67;1.20;;;2.10;98.00;;;;;;5011982;28;20458;-62
2021/11/25 00:13:07;;;;;;;1.20;1.20;;;2.10;98.00;;;;;;5012016;28;20876;-62
2021/11/25 00:15:34;;;;;;;1.40;1.10;;;2.10;98.00;;;;;;5012183;28;20537;-62
2021/11/25 00:18:02;;;;;;;1.87;1.43;;;2.20;98.00;;;;;;4994680;28;20470;-62
2021/11/25 00:20:29;;;;;;;1.87;1.50;;;2.30;98.00;;;;;;5011991;28;21061;-62
2021/11/25 00:22:56;;;;;;;20.20;2.37;;;2.20;98.00;;;;;;5011819;28;20491;-62
2021/11/25 00:25:24;;;;;;;1.97;1.60;;;2.30;98.00;;;;;;5012137;28;20470;-62
2021/11/25 00:27:51;;;;;;;5.30;1.27;;;2.20;98.00;;;;;;5011308;28;20459;-61
2021/11/25 00:30:21;;;;;;;1.17;1.00;;;2.20;98.00;;;;;;5012111;28;20944;-62
2021/11/25 00:32:48;;;;;;;1.30;1.27;;;2.10;98.00;;;;;;5011838;28;20934;-62
2021/11/25 00:35:16;;;;;;;1.70;1.50;;;2.10;98.00;;;;;;5011881;28;20515;-62
2021/11/25 00:37:45;;;;;;;1.20;1.10;;;2.10;98.00;;;;;;5011836;28;20540;-62
2021/11/25 00:40:17;;;;;;;1.40;1.37;;;2.10;98.00;;;;;;5010653;28;20885;-62
2021/11/25 00:42:46;;;;;;;1.20;1.10;;;2.10;98.00;;;;;;5011671;28;20491;-62
2021/11/25 00:45:14;;;;;;;1.40;1.20;;;2.10;98.00;;;;;;5010563;28;20451;-62
2021/11/25 00:47:44;;;;;;;1.20;1.00;;;2.10;98.00;;;;;;5010559;28;21168;-62
2021/11/25 00:50:13;;;;;;;1.20;1.00;;;2.20;98.00;;;;;;5010501;28;20486;-62
2021/11/25 00:52:42;;;;;;;2.50;1.27;;;2.10;98.00;;;;;;5013278;28;20886;-62
2021/11/25 00:55:09;;;;;;;1.47;1.13;;;2.10;98.00;;;;;;5015957;28;20474;-62
2021/11/25 00:57:37;;;;;;;2.07;1.87;;;2.10;98.00;;;;;;5015820;28;20528;-62
2021/11/25 01:00:08;;;;;;;1.20;1.10;;;2.10;98.00;;;;;;5015425;28;20467;-62
2021/11/25 01:02:35;;;;;;;2.77;1.43;;;2.10;98.00;;;;;;5015212;28;20895;-62
2021/11/25 01:05:04;;;;;;;1.53;1.43;;;2.10;98.00;;;;;;5015716;28;20466;-62
2021/11/25 01:07:32;;;;;;;1.20;1.10;;;2.10;98.00;;;;;;5015657;28;20548;-62
2021/11/25 01:10:00;;;;;;;1.20;1.10;;;2.00;98.00;;;;;;5014542;28;20483;-64
2021/11/25 01:12:29;;;;;;;1.13;1.00;;;2.00;98.00;;;;;;5015535;28;20565;-62
2021/11/25 01:14:56;;;;;;;2.73;1.70;;;2.00;98.00;;;;;;5015088;28;20817;-62
2021/11/25 01:17:24;;;;;;;1.70;1.40;;;2.00;98.00;;;;;;5015311;28;20489;-62
2021/11/25 01:19:52;;;;;;;1.20;1.10;;;2.00;98.00;;;;;;5015267;28;20929;-62
2021/11/25 01:22:20;;;;;;;1.20;1.20;;;2.00;98.00;;;;;;5014882;28;20466;-62
2021/11/25 01:24:48;;;;;;;2.43;2.03;;;2.00;98.00;;;;;;5015052;28;20516;-62
2021/11/25 01:27:16;;;;;;;1.10;1.00;;;2.00;98.00;;;;;;5014905;28;20470;-62
2021/11/25 01:29:43;;;;;;;1.30;1.20;;;2.00;98.00;;;;;;5014877;28;20482;-62
2021/11/25 01:32:10;;;;;;;1.70;1.40;;;2.00;98.00;;;;;;5014700;28;20462;-62
2021/11/25 01:34:37;;;;;;;1.10;1.00;;;2.00;98.00;;;;;;5014901;28;20459;-62
2021/11/25 01:37:05;;;;;;;1.20;1.10;;;2.10;98.00;;;;;;5014611;28;20894;-62
2021/11/25 01:39:34;;;;;;;1.20;1.20;;;2.10;98.00;;;;;;5014654;28;20520;-62
2021/11/25 01:42:03;;;;;;;1.10;1.00;;;2.10;98.00;;;;;;5014761;28;20459;-62
2021/11/25 01:44:30;;;;;;;1.20;1.20;;;2.10;98.00;;;;;;5014772;28;20483;-62
2021/11/25 01:47:02;;;;;;;2.03;1.53;;;2.10;98.00;;;;;;5014450;28;20468;-62
2021/11/25 01:49:29;;;;;;;1.10;1.10;;;2.20;98.00;;;;;;5014454;28;20499;-62
2021/11/25 01:52:01;;;;;;;1.20;1.00;;;2.30;98.00;;;;;;5014594;28;20654;-62
2021/11/25 01:54:28;;;;;;;1.33;1.30;;;2.30;98.00;;;;;;5014657;28;20520;-62
2021/11/25 01:56:58;;;;;;;7.73;1.47;;;2.30;98.00;;;;;;5014681;28;20466;-62
2021/11/25 01:59:26;;;;;;;1.50;1.20;;;2.30;98.00;;;;;;5014490;28;20517;-62
2021/11/25 02:01:53;;;;;;;1.30;1.23;;;2.30;98.00;;;;;;5013494;28;20493;-62
2021/11/25 02:04:20;;;;;;;1.10;0.90;;;2.30;98.00;;;;;;5012979;28;20487;-62
2021/11/25 02:06:47;;;;;;;1.57;1.47;;;2.20;98.00;;;;;;5013399;28;20525;-62
2021/11/25 02:09:14;;;;;;;1.10;1.00;;;2.20;98.00;;;;;;5013523;28;20942;-62
2021/11/25 02:11:43;;;;;;;3.40;1.73;;;2.20;98.00;;;;;;5012077;28;20536;-62
2021/11/25 02:14:11;;;;;;;1.83;1.67;;;2.20;98.00;;;;;;5013244;28;20451;-62
2021/11/25 02:16:39;;;;;;;1.20;1.20;;;2.20;98.00;;;;;;5012056;28;20517;-62
2021/11/25 02:19:14;;;;;;;2.07;1.50;;;2.30;98.00;;;;;;5013440;28;20462;-62
2021/11/25 02:21:43;;;;;;;1.70;1.50;;;2.30;98.00;;;;;;5013312;28;20459;-62
2021/11/25 02:24:10;;;;;;;8.60;1.50;;;2.30;98.00;;;;;;5013107;28;20517;-62
2021/11/25 02:26:37;;;;;;;1.80;1.10;;;2.30;98.00;;;;;;5013369;28;20455;-62
2021/11/25 02:29:05;;;;;;;1.20;1.10;;;2.30;98.00;;;;;;5013302;28;20530;-62
2021/11/25 02:31:32;;;;;;;1.67;1.57;;;2.30;98.00;;;;;;5013381;28;20868;-62
2021/11/25 02:33:59;;;;;;;1.50;1.47;;;2.30;98.00;;;;;;5013442;28;20744;-62
2021/11/25 02:36:27;;;;;;;1.20;1.20;;;2.30;98.00;;;;;;5012939;28;20514;-62
2021/11/25 02:38:55;;;;;;;1.20;1.20;;;2.20;98.00;;;;;;5012898;28;20463;-62
2021/11/25 02:41:23;;;;;;;1.20;1.00;;;2.20;98.00;;;;;;5012839;28;20469;-62
2021/11/25 02:43:53;;;;;;;1.60;1.30;;;2.10;98.00;;;;;;5012677;28;21058;-62
2021/11/25 02:46:20;;;;;;;1.20;1.13;;;2.20;98.00;;;;;;5012680;28;20707;-62
2021/11/25 02:48:51;;;;;;;3.90;1.30;;;2.20;98.00;;;;;;5011558;28;20955;-62
2021/11/25 02:51:21;;;;;;;2.07;1.30;;;2.30;98.00;;;;;;5012491;28;20474;-61
2021/11/25 02:53:49;;;;;;;1.40;1.20;;;2.30;98.00;;;;;;5012574;28;20518;-62
2021/11/25 02:56:19;;;;;;;1.20;1.10;;;2.20;98.00;;;;;;5012476;28;20459;-62
2021/11/25 02:58:48;;;;;;;1.30;1.27;;;2.30;98.00;;;;;;5012548;28;20455;-62
2021/11/25 03:01:18;;;;;;;1.10;1.00;;;2.50;98.00;;;;;;5012331;28;20475;-62
2021/11/25 03:03:45;;;;;;;1.13;1.00;;;2.60;98.00;;;;;;5012366;28;20498;-62
2021/11/25 03:06:13;;;;;;;1.20;1.10;;;2.60;98.00;;;;;;5012237;28;20546;-62
2021/11/25 03:08:40;;;;;;;6.50;1.30;;;2.60;98.00;;;;;;5012613;28;20857;-62
2021/11/25 03:11:10;;;;;;;1.13;0.93;;;2.70;98.00;;;;;;5012204;28;20514;-62
2021/11/25 03:13:41;;;;;;;1.17;0.90;;;2.70;98.00;;;;;;5011156;28;20459;-62
2021/11/25 03:16:10;;;;;;;1.17;1.00;;;3.00;98.00;;;;;;5011224;28;20462;-62
2021/11/25 03:18:37;;;;;;;1.20;1.00;;;3.10;98.00;;;;;;5012233;28;20462;-62
2021/11/25 03:21:05;;;;;;;1.30;1.20;;;3.10;98.00;;;;;;5011893;28;20471;-62
2021/11/25 03:23:41;;;;;;;2.57;1.50;;;3.00;98.00;;;;;;5012279;28;20491;-62
2021/11/25 03:26:09;;;;;;;1.10;1.00;;;2.90;98.00;;;;;;5011963;28;20466;-63
2021/11/25 03:28:40;;;;;;;1.63;1.30;;;2.90;98.00;;;;;;5012088;28;20517;-62
2021/11/25 03:31:09;;;;;;;3.17;2.33;;;2.90;98.00;;;;;;5012033;28;20469;-62
2021/11/25 03:33:36;;;;;;;5.27;2.00;;;3.00;98.00;;;;;;5012126;28;20463;-62
2021/11/25 03:36:06;;;;;;;1.43;1.30;;;2.90;98.00;;;;;;5011933;28;20498;-62
2021/11/25 03:38:33;;;;;;;1.50;1.40;;;3.00;98.00;;;;;;5010913;28;20463;-62
2021/11/25 03:41:00;;;;;;;1.17;0.90;;;2.90;98.00;;;;;;5010661;28;20462;-62
2021/11/25 03:43:28;;;;;;;1.10;0.90;;;2.90;98.00;;;;;;5011709;28;20490;-62
2021/11/25 03:45:56;;;;;;;1.37;1.00;;;3.00;98.00;;;;;;5011814;28;20472;-62
2021/11/25 03:48:28;;;;;;;1.10;1.00;;;3.00;98.00;;;;;;5011722;28;20475;-62
2021/11/25 03:50:57;;;;;;;1.97;1.40;;;2.90;98.00;;;;;;5011990;28;20459;-62
2021/11/25 03:53:25;;;;;;;1.20;1.10;;;3.00;98.00;;;;;;5010540;28;20492;-62
2021/11/25 03:55:53;;;;;;;1.57;1.17;;;3.00;98.00;;;;;;5011732;28;20968;-62
2021/11/25 03:58:21;;;;;;;3.00;1.70;;;3.10;98.00;;;;;;5011533;28;20456;-62
2021/11/25 04:00:49;;;;;;;1.53;1.43;;;3.10;98.00;;;;;;5011506;28;20522;-62
2021/11/25 04:03:16;;;;;;;1.10;0.90;;;3.00;98.00;;;;;;5011171;28;20871;-62
2021/11/25 04:05:45;;;;;;;2.17;1.87;;;2.90;98.00;;;;;;5010138;28;20464;-62
2021/11/25 04:08:12;;;;;;;1.20;1.10;;;2.90;98.00;;;;;;5011208;28;20472;-62
2021/11/25 04:10:39;;;;;;;2.07;1.20;;;2.90;98.00;;;;;;5010197;28;20455;-62
2021/11/25 04:13:06;;;;;;;2.50;1.90;;;3.10;98.00;;;;;;5011297;28;20464;-62
2021/11/25 04:15:33;;;;;;;1.57;1.30;;;3.20;98.00;;;;;;5011436;28;20742;-62
2021/11/25 04:18:00;;;;;;;1.20;1.03;;;3.10;98.00;;;;;;5011156;28;20458;-61
2021/11/25 04:20:28;;;;;;;1.20;0.90;;;3.10;98.00;;;;;;5008461;28;20459;-62
2021/11/25 04:22:58;;;;;;;1.30;1.17;;;3.00;98.00;;;;;;5011693;28;20459;-62
2021/11/25 04:25:26;;;;;;;1.30;1.10;;;3.10;98.00;;;;;;5010062;28;20487;-62
2021/11/25 04:27:53;;;;;;;1.20;1.00;;;3.00;98.00;;;;;;5014845;28;20465;-62
2021/11/25 04:30:36;;;;;;;2.23;1.10;;;2.80;98.00;;;;;;5018783;28;20861;-62
2021/11/25 04:35:48;;;;;;;2.50;1.40;;;2.70;98.00;;;;;;5018784;28;20446;-62
2021/11/25 04:38:20;;;;;;;1.20;1.00;;;2.70;98.00;;;;;;5016361;28;20463;-62
2021/11/25 04:40:50;;;;;;;1.77;1.70;;;2.70;98.00;;;;;;5017789;28;20455;-62
2021/11/25 04:43:19;;;;;;;1.20;1.00;;;2.80;98.00;;;;;;5017637;28;20459;-62
2021/11/25 04:45:47;;;;;;;1.33;1.30;;;2.90;98.00;;;;;;5017575;28;20463;-62
2021/11/25 04:48:15;;;;;;;2.03;1.30;;;2.80;98.00;;;;;;5017562;28;20529;-62
2021/11/25 04:50:43;;;;;;;3.30;1.80;;;2.90;98.00;;;;;;5017759;28;20458;-62
2021/11/25 04:53:12;;;;;;;1.40;1.13;;;3.00;98.00;;;;;;5017619;28;20870;-62
2021/11/25 04:55:42;;;;;;;1.60;1.30;;;2.90;98.00;;;;;;5017755;28;20455;-62
2021/11/25 04:58:10;;;;;;;1.60;1.30;;;2.90;98.00;;;;;;5017487;28;20459;-62
2021/11/25 05:00:37;;;;;;;2.33;2.00;;;2.90;98.00;;;;;;5017633;28;20459;-62
2021/11/25 05:03:05;;;;;;;3.37;1.83;;;2.70;98.00;;;;;;5017695;28;20828;-62
2021/11/25 05:05:32;;;;;;;1.20;1.20;;;2.80;98.00;;;;;;5016287;28;20485;-62
2021/11/25 05:07:59;;;;;;;4.70;1.77;;;2.80;98.00;;;;;;5017441;28;20463;-62
2021/11/25 05:10:27;;;;;;;1.70;1.10;;;2.90;98.00;;;;;;5017539;28;20873;-62
2021/11/25 05:12:55;;;;;;;1.20;1.13;;;2.90;98.00;;;;;;5017571;28;20455;-62
2021/11/25 05:15:22;;;;;;;1.40;1.33;;;3.00;98.00;;;;;;5017755;28;20513;-62
2021/11/25 05:17:51;;;;;;;1.10;1.00;;;3.00;98.00;;;;;;5017442;28;20455;-62
2021/11/25 05:20:19;;;;;;;1.10;0.90;;;3.00;98.00;;;;;;5017556;28;20977;-62
2021/11/25 05:22:47;;;;;;;1.70;1.07;;;2.90;98.00;;;;;;5017481;28;20451;-62
2021/11/25 05:25:16;;;;;;;1.30;1.20;;;2.80;98.00;;;;;;5017206;28;20483;-62
2021/11/25 05:27:44;;;;;;;1.23;1.23;;;2.90;98.00;;;;;;5017297;28;20494;-61
2021/11/25 05:30:14;;;;;;;1.73;1.20;;;2.90;98.00;;;;;;5017246;28;20467;-62
2021/11/25 05:32:42;;;;;;;2.23;1.30;;;2.80;98.00;;;;;;5017075;28;20451;-62
2021/11/25 05:35:10;;;;;;;1.73;1.60;;;2.70;98.00;;;;;;5017129;28;20886;-62
2021/11/25 05:37:38;;;;;;;1.83;1.73;;;2.70;98.00;;;;;;5017322;28;20487;-62
2021/11/25 05:40:07;;;;;;;2.17;1.83;;;2.70;98.00;;;;;;5013587;28;20953;-61
2021/11/25 05:42:35;;;;;;;2.40;1.40;;;2.60;98.00;;;;;;5013960;28;21027;-62
2021/11/25 05:45:05;;;;;;;2.37;1.73;;;2.60;98.00;;;;;;5013907;28;20494;-62
2021/11/25 05:47:36;;;;;;;1.77;1.73;;;2.50;98.00;;;;;;5013792;28;20546;-62
2021/11/25 05:50:05;;;;;;;1.20;1.00;;;2.50;98.00;;;;;;5013856;28;20752;-62
2021/11/25 05:52:33;;;;;;;1.20;1.10;;;2.50;98.00;;;;;;5013864;28;20459;-62
2021/11/25 05:55:00;;;;;;;1.53;1.43;;;2.40;98.00;;;;;;5013968;28;20506;-62
2021/11/25 05:57:27;;;;;;;4.20;1.43;;;2.40;98.00;;;;;;5013539;28;20459;-62
2021/11/25 05:59:54;;;;;;;1.33;1.30;;;2.50;98.00;;;;;;5013815;28;20463;-62
2021/11/25 06:02:21;;;;;;;1.10;0.90;;;2.50;98.00;;;;;;5013338;28;20468;-62
2021/11/25 06:04:50;;;;;;;4.37;1.77;;;2.40;98.00;;;;;;5013661;28;20487;-62
2021/11/25 06:07:17;;;;;;;1.20;1.20;;;2.40;98.00;;;;;;5013780;28;20471;-62
2021/11/25 06:09:53;;;;;;;1.53;1.43;;;2.40;98.00;;;;;;5013420;28;21012;-62
2021/11/25 06:12:20;;;;;;;1.20;1.10;;;2.40;98.00;;;;;;5013436;28;20517;-62
2021/11/25 06:14:47;;;;;;;1.77;1.43;;;2.40;98.00;;;;;;5013446;28;20471;-62
2021/11/25 06:17:14;;;;;;;5.23;3.50;;;2.40;98.00;;;;;;5013458;28;20460;-61
2021/11/25 06:19:42;;;;;;;2.60;1.90;;;2.50;98.00;;;;;;5013287;28;20466;-62
2021/11/25 06:22:11;;;;;;;1.30;1.30;;;2.70;98.00;;;;;;5013269;28;20534;-62
2021/11/25 06:24:38;;;;;;;1.43;1.27;;;2.80;98.00;;;;;;5013198;28;20985;-62
2021/11/25 06:27:06;;;;;;;1.30;1.10;;;2.80;98.00;;;;;;5013402;28;20459;-62
2021/11/25 06:29:33;;;;;;;1.70;1.30;;;2.90;98.00;;;;;;5013482;28;20621;-62
2021/11/25 06:32:00;;;;;;;1.20;1.10;;;3.00;98.00;;;;;;5013208;28;20506;-62
2021/11/25 06:34:27;;;;;;;1.20;1.10;;;3.00;98.00;;;;;;5012304;28;20467;-62
2021/11/25 06:37:14;;;;;;;1.87;1.17;;;3.10;98.00;;;;;;5013277;28;20460;-62
2021/11/25 06:39:41;;;;;;;1.20;1.10;;;3.10;98.00;;;;;;5012864;28;20455;-62
2021/11/25 06:42:08;;;;;;;1.83;1.10;;;3.00;98.00;;;;;;5011711;28;20877;-63
2021/11/25 06:44:35;;;;;;;1.10;1.00;;;3.00;98.00;;;;;;5012584;28;20537;-62
2021/11/25 06:47:02;;;;;;;1.10;1.00;;;3.00;98.00;;;;;;5012598;28;20459;-62
2021/11/25 06:49:29;;;;;;;1.60;1.30;;;3.00;98.00;;;;;;5012602;28;20525;-62
2021/11/25 06:51:56;;;;;;;2.07;1.83;;;3.00;98.00;;;;;;5012504;28;20463;-63
2021/11/25 06:54:25;;;;;;;1.20;1.17;;;3.10;98.00;;;;;;5012906;28;20468;-63
2021/11/25 06:56:52;;;;;;;3.50;1.83;;;3.10;98.00;;;;;;5012854;28;20933;-62
2021/11/25 06:59:19;;;;;;;1.20;1.20;;;3.20;98.00;;;;;;5012527;28;20517;-62
2021/11/25 07:01:46;;;;;;;1.70;1.50;;;3.20;98.00;;;;;;5012379;28;20470;-62
2021/11/25 07:04:14;;;;;;;1.60;1.10;;;3.20;98.00;;;;;;5012383;28;20459;-62
2021/11/25 07:06:41;;;;;;;1.43;1.33;;;3.20;98.00;;;;;;5012515;28;20459;-62
2021/11/25 07:09:08;;;;;;;2.03;1.50;;;3.30;98.00;;;;;;5012438;28;20462;-63
2021/11/25 07:11:37;;;;;;;1.50;1.10;;;3.30;98.00;;;;;;5011071;28;20466;-62
2021/11/25 07:14:05;;;;;;;1.73;1.53;;;3.30;98.00;;;;;;5012142;28;21008;-63
2021/11/25 07:16:32;;;;;;;2.23;2.03;;;3.40;98.00;;;;;;5012300;28;20458;-63
2021/11/25 07:18:59;;;;;;;1.20;1.20;;;3.40;98.00;;;;;;5012316;28;20525;-63
2021/11/25 07:21:27;;;;;;;6.60;2.10;;;3.40;98.00;;;;;;5012940;28;20455;-63
2021/11/25 07:23:54;;;;;;;1.57;1.47;;;3.60;98.00;;;;;;5012100;28;21005;-63
2021/11/25 07:26:21;;;;;;;1.40;1.40;;;3.70;98.00;;;;;;5012074;28;20541;-62
2021/11/25 07:28:50;;;;;;;1.30;1.10;;;3.60;98.00;;;;;;5012049;28;20467;-62
2021/11/25 07:31:17;;;;;;;1.87;1.77;;;3.70;98.00;;;;;;5012348;28;20455;-62
2021/11/25 07:33:45;;;;;;;1.50;1.43;;;3.80;98.00;;;;;;5011946;28;21012;-62
2021/11/25 07:36:13;;;;;;;1.80;1.30;;;3.80;98.00;;;;;;5012094;28;20517;-63
2021/11/25 07:38:40;;;;;;;1.33;1.10;;;3.80;98.00;;;;;;5012003;28;20518;-62
2021/11/25 07:41:07;;;;;;;1.20;1.00;;;3.60;98.00;;;;;;5011954;28;20460;-62
2021/11/25 07:43:34;;;;;;;1.73;1.20;;;3.60;98.00;;;;;;5011473;28;20992;-62
2021/11/25 07:46:04;;;;;;;2.20;1.17;;;3.60;98.00;;;;;;5011685;28;20491;-62
2021/11/25 07:48:31;;;;;;;1.40;1.20;;;3.60;98.00;;;;;;5011706;28;20521;-62
2021/11/25 07:51:00;;;;;;;4.60;1.50;;;3.60;98.00;;;;;;5011956;28;20493;-62
2021/11/25 07:53:28;;;;;;;1.23;1.10;;;3.60;98.00;;;;;;5011394;28;20471;-62
2021/11/25 07:55:55;;;;;;;1.50;1.43;;;3.50;98.00;;;;;;5011836;28;20451;-63
2021/11/25 07:58:23;;;;;;;1.40;1.30;;;3.50;98.00;;;;;;5011722;28;20455;-62
2021/11/25 08:00:50;;;;;;;1.73;1.20;;;3.40;98.00;;;;;;5011440;28;20480;-62
2021/11/25 08:03:19;;;;;;;1.10;1.00;;;3.50;98.00;;;;;;5011278;28;20468;-62
2021/11/25 08:05:46;;;;;;;1.30;1.10;;;3.40;98.00;;;;;;5011459;28;20506;-62
2021/11/25 08:08:13;;;;;;;1.30;1.10;;;3.50;98.00;;;;;;5011422;28;20456;-62
2021/11/25 08:10:41;;;;;;;2.50;2.30;;;3.50;98.00;;;;;;5010209;28;20455;-62
2021/11/25 08:13:10;;;;;;;1.63;1.60;;;3.60;98.00;;;;;;5011241;28;20482;-62
2021/11/25 08:15:37;;;;;;;1.83;1.73;;;3.60;98.00;;;;;;5011115;28;20470;-62
2021/11/25 08:18:05;;;;;;;1.20;1.10;;;3.60;98.00;;;;;;5011268;28;20463;-62
2021/11/25 08:20:33;;;;;;;2.20;1.33;;;3.50;98.00;;;;;;5011298;28;20486;-62
2021/11/25 08:23:00;;;;;;;1.30;1.20;;;3.50;98.00;;;;;;5010083;28;20844;-63
2021/11/25 08:25:28;;;;;;;1.20;1.10;;;3.60;98.00;;;;;;5010460;28;20535;-65
2021/11/25 08:27:57;;;;;;;1.20;1.10;;;3.60;98.00;;;;;;5007353;28;20517;-63
2021/11/25 08:30:25;;;;;;;8.63;1.30;;;3.70;98.00;;;;;;5009027;28;20463;-63
2021/11/25 08:32:52;;;;;;;1.60;1.47;;;3.70;98.00;;;;;;5008598;28;20455;-63
2021/11/25 08:35:21;;;;;;;2.40;1.40;;;3.80;98.00;;;;;;5009022;28;20757;-63
2021/11/25 08:37:49;;;;;;;1.53;1.40;;;3.80;98.00;;;;;;5009122;28;20463;-62
2021/11/25 08:40:17;;;;;;;1.20;1.20;;;3.70;98.00;;;;;;5007612;28;20471;-62
2021/11/25 08:42:47;;;;;;;1.87;1.30;;;3.70;98.00;;;;;;5008594;28;20827;-63
2021/11/25 08:45:15;;;;;;;1.90;1.90;;;3.70;98.00;;;;;;5009481;28;20883;-63
2021/11/25 08:47:48;;;;;;;1.90;1.47;;;3.90;98.00;;;;;;5011432;28;20464;-63
2021/11/25 08:50:17;;;;;;;1.67;1.20;;;4.00;98.00;;;;;;5011481;28;20530;-61
2021/11/25 08:52:45;;;;;;;1.20;1.20;;;4.00;98.00;;;;;;4998178;28;20473;-62
2021/11/25 08:55:13;;;;;;;1.60;1.50;;;4.00;98.00;;;;;;4992030;28;21136;-62
2021/11/25 08:57:40;;;;;;;1.20;1.00;;;4.00;98.00;;;;;;4991860;28;20455;-62
2021/11/25 09:00:10;;;;;;;1.43;1.23;;;4.00;98.00;;;;;;5008782;28;21017;-62
2021/11/25 09:02:38;;;;;;;1.30;1.20;;;4.00;98.00;;;;;;5004691;28;20537;-62
2021/11/25 09:05:07;;;;;;;1.20;1.00;;;4.00;98.00;;;;;;5025834;28;20481;-62
2021/11/25 09:07:34;;;;;;;2.60;1.77;;;4.00;98.00;;;;;;5031167;28;20529;-62
2021/11/25 09:10:01;;;;;;;1.50;1.30;;;4.00;98.00;;;;;;5031299;28;20461;-62
2021/11/25 09:12:30;;;;;;;2.00;1.93;;;3.80;98.00;;;;;;5031067;28;20972;-62
2021/11/25 09:14:57;;;;;;;1.33;1.20;;;3.60;98.00;;;;;;5032578;28;20462;-62
2021/11/25 09:17:25;;;;;;;1.30;1.20;;;3.70;98.00;;;;;;5033580;28;20457;-63
2021/11/25 09:19:52;;;;;;;1.90;1.63;;;3.70;98.00;;;;;;5034407;28;21009;-62
2021/11/25 09:22:19;;;;;;;1.20;1.17;;;3.80;98.00;;;;;;5034744;28;20454;-62
2021/11/25 09:24:47;;;;;;;1.53;1.10;;;3.60;98.00;;;;;;5034610;28;20465;-63
2021/11/25 09:27:15;;;;;;;1.40;1.20;;;3.40;98.00;;;;;;5033969;28;20474;-62
2021/11/25 09:29:44;;;;;;;4.50;1.97;;;3.30;98.00;;;;;;5034505;28;20853;-62
2021/11/25 09:32:12;;;;;;;1.43;1.30;;;3.40;98.00;;;;;;5034489;28;20455;-62
2021/11/25 09:34:44;;;;;;;1.20;1.00;;;3.60;98.00;;;;;;5034045;28;20535;-62
2021/11/25 09:37:13;;;;;;;1.40;1.37;;;3.50;98.00;;;;;;5031391;28;20447;-63
2021/11/25 09:39:40;;;;;;;1.20;1.00;;;3.70;98.00;;;;;;5014368;28;20459;-62
2021/11/25 09:42:08;;;;;;;1.30;1.20;;;3.80;98.00;;;;;;5014665;28;20474;-63
2021/11/25 09:44:35;;;;;;;1.30;1.10;;;3.90;98.00;;;;;;5014858;28;20466;-62
2021/11/25 09:47:05;;;;;;;3.20;1.30;;;3.90;98.00;;;;;;5014597;28;20545;-63
2021/11/25 09:49:32;;;;;;;2.07;1.63;;;3.90;98.00;;;;;;5014460;28;20517;-62
2021/11/25 09:51:59;;;;;;;3.30;1.67;;;4.00;98.00;;;;;;5014741;28;20534;-63
2021/11/25 09:54:27;;;;;;;1.30;1.30;;;4.10;98.00;;;;;;5014462;28;20471;-63
2021/11/25 09:56:54;;;;;;;1.80;1.70;;;4.10;98.00;;;;;;5013980;28;20464;-62
2021/11/25 09:59:21;;;;;;;1.30;1.30;;;4.00;98.00;;;;;;5012892;28;20460;-63
2021/11/25 10:01:48;;;;;;;5.43;2.07;;;3.80;98.00;;;;;;5013400;28;21039;-62
2021/11/25 10:04:18;;;;;;;1.20;1.17;;;3.70;98.00;;;;;;5013655;28;20454;-63
2021/11/25 10:07:27;;;;;;;1.20;1.00;;;3.60;98.00;;;;;;5012915;28;20491;-63
2021/11/25 10:09:54;;;;;;;1.20;1.10;;;3.60;98.00;;;;;;5012314;28;20452;-63
2021/11/25 10:12:34;;;;;;;1.20;1.10;;;3.70;98.00;;;;;;5012392;28;20518;-62
2021/11/25 10:15:22;;;;;;;1.60;1.57;;;3.80;98.00;;;;;;5013515;28;20499;-63
2021/11/25 10:17:53;;;;;;;1.33;1.13;;;3.70;98.00;;;;;;5013418;28;20465;-63
2021/11/25 10:20:22;;;;;;;2.80;1.87;;;3.70;98.00;;;;;;5013418;28;20517;-62
2021/11/25 10:23:15;;;;;;;1.30;1.17;;;3.70;98.00;;;;;;5013210;28;20474;-62
2021/11/25 10:25:45;;;;;;;1.20;1.00;;;3.90;98.00;;;;;;5012782;28;20489;-62
2021/11/25 10:28:22;;;;;;;1.20;1.00;;;3.90;98.00;;;;;;5013155;28;20474;-62
2021/11/25 10:30:51;;;;;;;1.30;1.30;;;3.90;98.00;;;;;;5013408;28;20470;-62
2021/11/25 10:33:24;;;;;;;1.43;1.37;;;3.90;98.00;;;;;;5013170;28;20457;-63
2021/11/25 10:41:40;;;;;;;1.83;1.50;;;4.00;98.00;;;;;;4995871;28;20505;-62
2021/11/25 10:44:17;;;;;;;1.30;1.20;;;4.20;98.00;;;;;;5012911;28;20510;-62
2021/11/25 10:46:48;;;;;;;5.63;1.57;;;4.10;98.00;;;;;;5012655;28;20492;-63
2021/11/25 10:49:15;;;;;;;1.20;1.00;;;4.20;98.00;;;;;;5012789;28;20529;-62
2021/11/25 10:51:46;;;;;;;2.37;1.53;;;4.10;98.00;;;;;;5012891;28;20455;-62
2021/11/25 10:54:15;;;;;;;1.40;1.27;;;4.10;98.00;;;;;;5011449;28;20459;-63
2021/11/25 10:56:44;;;;;;;2.23;1.70;;;4.10;98.00;;;;;;5012691;28;20463;-62
2021/11/25 10:59:14;;;;;;;3.53;1.20;;;4.10;98.00;;;;;;5012350;28;20448;-62
2021/11/25 11:01:45;;;;;;;2.60;1.30;;;4.10;98.00;;;;;;5011290;28;20466;-62
2021/11/25 11:04:15;;;;;;;1.20;1.00;;;4.30;98.00;;;;;;5012495;28;20518;-63
2021/11/25 11:06:44;;;;;;;1.20;1.00;;;4.20;98.00;;;;;;5012364;28;20517;-63
2021/11/25 11:09:31;;;;;;;4.07;1.60;;;4.10;98.00;;;;;;5012016;28;20463;-62
2021/11/25 11:12:25;;;;;;;5.57;1.40;;;4.00;98.00;;;;;;5012741;28;20538;-63
2021/11/25 11:14:55;;;;;;;3.20;1.63;;;4.20;98.00;;;;;;5012813;28;20455;-63
2021/11/25 11:17:30;;;;;;;1.20;1.10;;;4.30;98.00;;;;;;5012708;28;20462;-63
2021/11/25 11:20:13;;;;;;;1.40;1.30;;;4.40;98.00;;;;;;5012905;28;20458;-62
2021/11/25 11:22:41;;;;;;;1.70;1.60;;;4.40;98.00;;;;;;5012826;28;20498;-62
2021/11/25 11:25:09;;;;;;;1.50;1.30;;;4.50;98.00;;;;;;5012684;28;20463;-62
2021/11/25 11:27:36;;;;;;;1.93;1.23;;;4.60;98.00;;;;;;5012208;28;20561;-62
2021/11/25 11:30:06;;;;;;;2.20;1.33;;;4.60;98.00;;;;;;5012330;28;20460;-63
2021/11/25 11:32:33;;;;;;;1.40;1.30;;;4.60;98.00;;;;;;5012942;28;20465;-62
2021/11/25 11:35:04;;;;;;;1.20;1.10;;;4.50;98.00;;;;;;5012544;28;20459;-62
2021/11/25 11:37:31;;;;;;;2.70;2.50;;;4.20;98.00;;;;;;5011858;28;20460;-62
2021/11/25 11:40:05;;;;;;;1.20;1.20;;;4.30;98.00;;;;;;5012685;28;20886;-62
2021/11/25 11:42:33;;;;;;;1.20;1.10;;;4.40;98.00;;;;;;5012195;28;20455;-62
2021/11/25 11:45:01;;;;;;;1.57;1.40;;;4.50;98.00;;;;;;5012579;28;20517;-62
2021/11/25 11:47:29;;;;;;;1.20;1.00;;;4.50;98.00;;;;;;5011480;28;20498;-63
2021/11/25 11:50:01;;;;;;;3.20;1.60;;;4.60;98.00;;;;;;5012297;28;20460;-62
2021/11/25 11:52:29;;;;;;;6.60;1.67;;;4.70;98.00;;;;;;5012603;28;20803;-62
2021/11/25 11:54:59;;;;;;;1.83;1.73;;;4.70;98.00;;;;;;5011676;28;20466;-62
2021/11/25 11:57:39;;;;;;;1.50;1.30;;;4.70;98.00;;;;;;5012384;28;20459;-62
2021/11/25 12:00:24;;;;;;;1.73;1.60;;;4.60;98.00;;;;;;5011257;28;20498;-62
2021/11/25 12:02:53;;;;;;;1.20;1.00;;;4.50;98.00;;;;;;4999647;28;20458;-62
2021/11/25 12:05:49;;;;;;;1.57;1.10;;;4.40;98.00;;;;;;5011027;28;21020;-62
2021/11/25 12:08:47;;;;;;;2.53;1.30;;;4.50;98.00;;;;;;5005446;28;20455;-63
2021/11/25 12:11:19;;;;;;;1.20;1.17;;;4.60;98.00;;;;;;5011923;28;20945;-62
2021/11/25 12:14:19;;;;;;;5.23;2.30;;;4.50;98.00;;;;;;5012159;28;20475;-63
2021/11/25 12:16:54;;;;;;;2.13;1.30;;;4.50;98.00;;;;;;5012095;28;20509;-63
2021/11/25 12:19:31;;;;;;;1.77;1.47;;;4.60;98.00;;;;;;5011951;28;20466;-63
2021/11/25 12:22:01;;;;;;;1.20;1.03;;;4.60;98.00;;;;;;5011823;28;20539;-63
2021/11/25 12:24:34;;;;;;;1.30;1.30;;;4.70;98.00;;;;;;5012132;28;20460;-63
2021/11/25 12:27:17;;;;;;;1.20;1.00;;;4.60;98.00;;;;;;5010437;28;20518;-63
2021/11/25 12:29:50;;;;;;;1.63;1.60;;;4.40;98.00;;;;;;5012007;28;20513;-63
2021/11/25 12:32:31;;;;;;;1.83;1.30;;;4.40;98.00;;;;;;5011522;28;20472;-62
2021/11/25 12:35:03;;;;;;;1.40;1.10;;;4.50;98.00;;;;;;5011830;28;20443;-62
2021/11/25 12:37:55;;;;;;;1.47;1.47;;;4.60;98.00;;;;;;5011764;28;20463;-62
2021/11/25 12:40:43;;;;;;;1.33;1.30;;;4.70;98.00;;;;;;5011878;28;20456;-63
2021/11/25 12:43:13;;;;;;;1.20;1.10;;;4.70;98.00;;;;;;5011817;28;20459;-62
2021/11/25 12:45:44;;;;;;;2.13;1.40;;;4.70;98.00;;;;;;5011926;28;20889;-62
2021/11/25 12:48:24;;;;;;;1.57;1.50;;;4.70;98.00;;;;;;5012482;28;20487;-62
2021/11/25 12:50:55;;;;;;;1.17;0.97;;;4.70;98.00;;;;;;5014833;28;20460;-62
2021/11/25 12:53:29;;;;;;;1.20;1.00;;;4.80;98.00;;;;;;5015603;28;20463;-62
2021/11/25 12:56:00;;;;;;;1.50;1.10;;;4.80;98.00;;;;;;5015676;28;20474;-63
2021/11/25 12:58:32;;;;;;;1.37;1.33;;;4.60;98.00;;;;;;5015664;28;20470;-62
2021/11/25 13:01:02;;;;;;;1.30;1.13;;;4.60;98.00;;;;;;5015442;28;20467;-62
2021/11/25 13:03:29;;;;;;;1.20;1.00;;;4.60;98.00;;;;;;5015490;28;20459;-62
2021/11/25 13:05:59;;;;;;;1.60;1.40;;;4.60;98.00;;;;;;5015473;28;20517;-62
2021/11/25 13:08:29;;;;;;;2.00;1.90;;;4.70;98.00;;;;;;5015503;28;20539;-62
2021/11/25 13:10:56;;;;;;;1.77;1.67;;;4.70;98.00;;;;;;5015484;28;20469;-62
2021/11/25 13:13:26;;;;;;;1.20;1.20;;;4.60;98.00;;;;;;5015728;28;20464;-63
2021/11/25 13:16:04;;;;;;;1.50;1.30;;;4.60;98.00;;;;;;5015616;28;20459;-62
2021/11/25 13:19:00;;;;;;;1.20;1.00;;;4.60;98.00;;;;;;5015248;28;20455;-62